Time;durP1;ratioP1;P1;durP2;ratioP2;P2;SDS_P1;SDS_P2;PMS_P1;PMS_P2;Temp;Humidity;BMP_temperature;BMP_pressure;BME280_temperature;BME280_humidity;BME280_pressure;Samples;Min_cycle;Max_cycle;Signal;HPM_P1;HPM_P2
2021/04/13 00:01:12;;;;;;;;;;;;;;;9.25;44.29;102375.13;4989259;28;101933;-77
2021/04/13 00:03:38;;;;;;;;;;;;;;;8.66;45.84;102377.97;4988979;28;98969;-78
2021/04/13 00:06:05;;;;;;;;;;;;;;;8.91;45.49;102377.00;4988610;28;97202;-78
2021/04/13 00:08:31;;;;;;;;;;;;;;;8.68;45.49;102382.31;4988728;28;96908;-77
2021/04/13 00:10:59;;;;;;;;;;;;;;;8.94;45.34;102374.34;4985066;28;99052;-78
2021/04/13 00:13:27;;;;;;;;;;;;;;;9.12;44.77;102374.28;4988185;28;99810;-78
2021/04/13 00:15:55;;;;;;;;;;;;;;;9.08;44.91;102367.28;4988363;28;98186;-78
2021/04/13 00:18:25;;;;;;;;;;;;;;;9.17;44.90;102372.53;4986088;28;97264;-78
2021/04/13 00:20:52;;;;;;;;;;;;;;;9.22;44.71;102376.91;4984654;28;100157;-77
2021/04/13 00:23:19;;;;;;;;;;;;;;;9.29;44.57;102374.22;4986912;28;98421;-77
2021/04/13 00:25:47;;;;;;;;;;;;;;;9.15;44.63;102371.66;4985814;28;98458;-77
2021/04/13 00:28:13;;;;;;;;;;;;;;;8.96;44.72;102372.59;4986773;28;97384;-78
2021/04/13 00:30:42;;;;;;;;;;;;;;;9.00;44.77;102374.34;4987031;28;98920;-77
2021/04/13 00:33:13;;;;;;;;;;;;;;;9.23;44.73;102376.91;4990128;28;98780;-80
2021/04/13 00:35:44;;;;;;;;;;;;;;;9.10;44.54;102376.06;4988253;28;99051;-77
2021/04/13 00:38:14;;;;;;;;;;;;;;;9.15;44.89;102374.28;4987879;28;98840;-77
2021/04/13 00:40:40;;;;;;;;;;;;;;;9.07;45.21;102372.56;4986886;28;98899;-77
2021/04/13 00:43:07;;;;;;;;;;;;;;;9.03;45.00;102373.47;4990515;28;98045;-78
2021/04/13 00:45:34;;;;;;;;;;;;;;;8.95;45.31;102376.13;4992514;28;96923;-77
2021/04/13 00:48:01;;;;;;;;;;;;;;;8.92;45.36;102370.88;4989237;28;96922;-78
2021/04/13 00:50:29;;;;;;;;;;;;;;;9.08;44.98;102377.81;4990208;28;98151;-77
2021/04/13 00:52:57;;;;;;;;;;;;;;;9.02;44.95;102377.84;4991018;28;98830;-78
2021/04/13 00:55:26;;;;;;;;;;;;;;;8.78;45.58;102367.38;4990291;28;97328;-77
2021/04/13 00:57:57;;;;;;;;;;;;;;;9.12;44.71;102368.16;4991489;28;97145;-77
2021/04/13 01:00:25;;;;;;;;;;;;;;;8.86;45.10;102370.84;4988866;28;98912;-78
2021/04/13 01:02:56;;;;;;;;;;;;;;;8.76;44.98;102377.94;4991715;28;99263;-78
2021/04/13 01:05:22;;;;;;;;;;;;;;;9.10;44.66;102369.91;4992837;28;98348;-78
2021/04/13 01:07:49;;;;;;;;;;;;;;;8.90;44.97;102372.63;4991268;28;96884;-78
2021/04/13 01:10:17;;;;;;;;;;;;;;;8.80;45.12;102362.97;4988846;28;99316;-78
2021/04/13 01:12:43;;;;;;;;;;;;;;;9.00;44.84;102373.44;4986434;28;99298;-78
2021/04/13 01:15:12;;;;;;;;;;;;;;;8.96;44.89;102367.31;4992886;28;97030;-78
2021/04/13 01:17:38;;;;;;;;;;;;;;;8.85;45.12;102368.25;4992090;28;98602;-78
2021/04/13 01:20:10;;;;;;;;;;;;;;;8.89;45.03;102368.22;4991830;28;98903;-78
2021/04/13 01:22:41;;;;;;;;;;;;;;;8.74;45.36;102371.78;4990756;28;98887;-79
2021/04/13 01:25:09;;;;;;;;;;;;;;;8.87;45.39;102367.34;4990722;28;97358;-78
2021/04/13 01:27:36;;;;;;;;;;;;;;;8.47;45.89;102377.06;4997674;28;96855;-77
2021/04/13 01:30:05;;;;;;;;;;;;;;;8.59;45.84;102370.94;4992216;28;99206;-78
2021/04/13 01:32:32;;;;;;;;;;;;;;;8.90;45.37;102371.75;4994946;28;99493;-77
2021/04/13 01:35:05;;;;;;;;;;;;;;;8.75;45.62;102365.63;4994989;28;96793;-79
2021/04/13 01:37:44;;;;;;;;;;;;;;;8.78;45.39;102370.03;4993172;28;96933;-78
2021/04/13 01:40:19;;;;;;;;;;;;;;;8.89;45.13;102370.84;4993036;28;99205;-79
2021/04/13 01:42:48;;;;;;;;;;;;;;;8.72;45.85;102373.56;4992580;28;99260;-77
2021/04/13 01:45:15;;;;;;;;;;;;;;;8.93;45.50;102375.22;4992371;28;97249;-78
2021/04/13 01:47:42;;;;;;;;;;;;;;;8.99;45.39;102372.56;4992252;28;96773;-78
2021/04/13 01:50:13;;;;;;;;;;;;;;;8.83;45.67;102377.91;4990696;28;99106;-78
2021/04/13 01:52:40;;;;;;;;;;;;;;;8.82;46.13;102373.50;4991556;28;99313;-78
2021/04/13 01:55:09;;;;;;;;;;;;;;;8.71;46.14;102384.97;4981664;28;96847;-76
2021/04/13 01:57:42;;;;;;;;;;;;;;;8.50;46.58;102381.47;4984758;28;96871;-79
2021/04/13 02:00:11;;;;;;;;;;;;;;;8.40;46.96;102380.63;4990356;28;99783;-78
2021/04/13 02:02:45;;;;;;;;;;;;;;;8.50;46.88;102381.47;4992772;28;98952;-79
2021/04/13 02:05:15;;;;;;;;;;;;;;;8.63;46.49;102383.22;4992736;28;96969;-79
2021/04/13 02:07:50;;;;;;;;;;;;;;;8.66;45.95;102375.31;4994207;28;96738;-77
2021/04/13 02:10:24;;;;;;;;;;;;;;;8.24;47.13;102381.47;4988994;28;99414;-79
2021/04/13 02:12:55;;;;;;;;;;;;;;;8.52;46.69;102379.72;4989624;28;98967;-78
2021/04/13 02:15:35;;;;;;;;;;;;;;;8.58;46.46;102379.72;4990958;28;98776;-78
2021/04/13 02:18:03;;;;;;;;;;;;;;;7.85;48.02;102377.03;4992409;28;97053;-78
2021/04/13 02:20:30;;;;;;;;;;;;;;;8.08;48.15;102387.59;4988618;28;98925;-78
2021/04/13 02:22:56;;;;;;;;;;;;;;;8.45;47.24;102380.63;4992320;28;99015;-79
2021/04/13 02:25:25;;;;;;;;;;;;;;;8.46;46.80;102388.53;5001978;28;96758;-78
2021/04/13 02:27:52;;;;;;;;;;;;;;;8.20;47.53;102390.25;5003703;28;97775;-77
2021/04/13 02:30:26;;;;;;;;;;;;;;;8.32;47.19;102399.06;5005698;28;99006;-78
2021/04/13 02:32:53;;;;;;;;;;;;;;;8.32;47.39;102399.06;5012270;28;99164;-79
2021/04/13 02:35:20;;;;;;;;;;;;;;;8.29;47.28;102398.13;5007911;28;96907;-78
2021/04/13 02:37:47;;;;;;;;;;;;;;;8.23;47.44;102392.88;4996081;28;98203;-78
2021/04/13 02:40:16;;;;;;;;;;;;;;;8.33;47.35;102400.81;4988179;28;98672;-79
2021/04/13 02:42:43;;;;;;;;;;;;;;;8.10;48.09;102399.00;4995192;28;98874;-79
2021/04/13 02:45:10;;;;;;;;;;;;;;;8.09;48.01;102394.59;4995965;28;97049;-78
2021/04/13 02:47:38;;;;;;;;;;;;;;;8.22;47.90;102393.75;4994220;28;96952;-79
2021/04/13 02:50:06;;;;;;;;;;;;;;;8.01;48.37;102397.22;4993741;28;99470;-77
2021/04/13 02:52:33;;;;;;;;;;;;;;;7.70;48.84;102395.41;4992508;28;98921;-78
2021/04/13 02:55:00;;;;;;;;;;;;;;;7.87;48.77;102399.00;4989617;28;97348;-78
2021/04/13 02:57:28;;;;;;;;;;;;;;;8.10;48.34;102404.28;4981929;28;96987;-79
2021/04/13 02:59:57;;;;;;;;;;;;;;;8.20;48.09;102401.66;4975497;28;98871;-78
2021/04/13 03:02:26;;;;;;;;;;;;;;;8.01;48.33;102394.59;4995638;28;99406;-77
2021/04/13 03:04:54;;;;;;;;;;;;;;;7.79;48.73;102391.06;4997076;28;96676;-77
2021/04/13 03:07:22;;;;;;;;;;;;;;;7.81;48.96;102391.94;4994226;28;96998;-78
2021/04/13 03:09:49;;;;;;;;;;;;;;;7.97;48.42;102400.75;4993752;28;99540;-78
2021/04/13 03:12:16;;;;;;;;;;;;;;;8.02;48.48;102388.47;4990484;28;99161;-78
2021/04/13 03:14:45;;;;;;;;;;;;;;;8.24;47.85;102398.13;4993541;28;97418;-79
2021/04/13 03:17:13;;;;;;;;;;;;;;;7.97;48.42;102400.75;4992539;28;96948;-78
2021/04/13 03:19:40;;;;;;;;;;;;;;;8.10;48.30;102401.63;4993015;28;98180;-78
2021/04/13 03:22:07;;;;;;;;;;;;;;;8.05;48.32;102404.28;4991798;28;98765;-79
2021/04/13 03:24:36;;;;;;;;;;;;;;;8.14;48.03;102400.78;4993057;28;96833;-79
2021/04/13 03:27:04;;;;;;;;;;;;;;;7.96;48.23;102398.97;4992267;28;96905;-79
2021/04/13 03:29:31;;;;;;;;;;;;;;;7.59;49.08;102398.91;4997629;28;99273;-78
2021/04/13 03:31:58;;;;;;;;;;;;;;;7.68;49.28;102397.19;4994624;28;98149;-79
2021/04/13 03:34:25;;;;;;;;;;;;;;;7.86;48.80;102397.22;4991757;28;96775;-79
2021/04/13 03:36:52;;;;;;;;;;;;;;;7.83;48.82;102397.22;4995565;28;97069;-79
2021/04/13 03:39:24;;;;;;;;;;;;;;;7.94;48.69;102398.97;4991150;28;99700;-78
2021/04/13 03:41:51;;;;;;;;;;;;;;;7.98;48.40;102397.25;4994350;28;98807;-79
2021/04/13 03:44:18;;;;;;;;;;;;;;;7.81;48.74;102404.25;4992525;28;96874;-78
2021/04/13 03:46:45;;;;;;;;;;;;;;;7.65;49.04;102394.53;4993637;28;96827;-79
2021/04/13 03:49:15;;;;;;;;;;;;;;;7.84;48.87;102405.13;4992936;28;99229;-79
2021/04/13 03:51:45;;;;;;;;;;;;;;;7.86;48.88;102410.38;4991827;28;99195;-78
2021/04/13 03:54:18;;;;;;;;;;;;;;;7.93;48.67;102409.53;4991551;28;98943;-78
2021/04/13 03:56:44;;;;;;;;;;;;;;;7.89;48.54;102408.63;4993309;28;96853;-78
2021/04/13 03:59:24;;;;;;;;;;;;;;;7.92;48.70;102415.66;4993148;28;98816;-78
2021/04/13 04:01:51;;;;;;;;;;;;;;;7.66;48.86;102412.09;4991145;28;99254;-78
2021/04/13 04:04:21;;;;;;;;;;;;;;;7.62;49.13;102413.81;4973774;28;98038;-78
2021/04/13 04:06:52;;;;;;;;;;;;;;;7.76;48.91;102416.47;4992258;28;96846;-78
2021/04/13 04:09:19;;;;;;;;;;;;;;;7.85;48.90;102411.25;4994622;28;99145;-77
2021/04/13 04:11:45;;;;;;;;;;;;;;;7.87;48.63;102410.41;4994045;28;99213;-78
2021/04/13 04:14:17;;;;;;;;;;;;;;;7.76;48.72;102411.22;4996463;28;96850;-78
2021/04/13 04:16:43;;;;;;;;;;;;;;;7.90;48.66;102409.50;4994656;28;96889;-77
2021/04/13 04:19:11;;;;;;;;;;;;;;;7.88;48.80;102403.34;4989767;28;98855;-78
2021/04/13 04:21:37;;;;;;;;;;;;;;;7.93;48.66;102409.53;4992344;28;98760;-78
2021/04/13 04:24:05;;;;;;;;;;;;;;;7.97;48.58;102411.28;4991464;28;97087;-78
2021/04/13 04:26:33;;;;;;;;;;;;;;;7.70;49.01;102417.34;4992483;28;97308;-78
2021/04/13 04:29:13;;;;;;;;;;;;;;;7.74;48.96;102415.63;4988619;28;99216;-79
2021/04/13 04:31:41;;;;;;;;;;;;;;;7.95;48.82;102415.66;4987793;28;98758;-78
2021/04/13 04:34:26;;;;;;;;;;;;;;;7.70;49.24;102413.84;4990852;28;97689;-78
2021/04/13 04:36:53;;;;;;;;;;;;;;;7.69;49.48;102422.59;4989917;28;97338;-78
2021/04/13 04:39:22;;;;;;;;;;;;;;;7.34;50.45;102423.38;4989644;28;101005;-78
2021/04/13 04:41:48;;;;;;;;;;;;;;;7.73;49.46;102427.91;4990548;28;99259;-78
2021/04/13 04:44:20;;;;;;;;;;;;;;;7.88;48.87;102427.91;4984951;28;98170;-78
2021/04/13 04:46:46;;;;;;;;;;;;;;;7.82;49.41;102422.66;4991360;28;96967;-79
2021/04/13 04:49:13;;;;;;;;;;;;;;;7.90;48.96;102430.56;4981183;28;98978;-77
2021/04/13 04:51:40;;;;;;;;;;;;;;;7.64;49.65;102427.88;4991121;28;102087;-78
2021/04/13 04:54:07;;;;;;;;;;;;;;;7.61;49.64;102430.50;4991414;28;96843;-78
2021/04/13 04:56:33;;;;;;;;;;;;;;;7.71;49.40;102439.28;4990300;28;96890;-79
2021/04/13 04:58:58;;;;;;;;;;;;;;;7.67;49.39;102448.94;4988853;28;98869;-78
2021/04/13 05:01:25;;;;;;;;;;;;;;;7.96;48.89;102449.00;4991710;28;98864;-79
2021/04/13 05:03:51;;;;;;;;;;;;;;;7.86;48.92;102445.47;4990341;28;98598;-78
2021/04/13 05:06:18;;;;;;;;;;;;;;;7.69;49.36;102447.16;4993232;28;97231;-78
2021/04/13 05:08:44;;;;;;;;;;;;;;;7.75;49.60;102448.94;4990617;28;98842;-78
2021/04/13 05:11:10;;;;;;;;;;;;;;;7.83;49.47;102449.84;4991259;28;99076;-77
2021/04/13 05:13:36;;;;;;;;;;;;;;;7.79;49.39;102443.72;4991887;28;96816;-77
2021/04/13 05:16:02;;;;;;;;;;;;;;;7.88;49.40;102453.34;4992799;28;98512;-77
2021/04/13 05:18:28;;;;;;;;;;;;;;;7.78;49.49;102456.84;4989949;28;98998;-78
2021/04/13 05:20:54;;;;;;;;;;;;;;;8.25;48.57;102459.59;4992899;28;99022;-78
2021/04/13 05:23:22;;;;;;;;;;;;;;;7.81;49.65;102462.13;4966309;28;97817;-78
2021/04/13 05:25:48;;;;;;;;;;;;;;;8.00;48.80;102461.31;4993473;28;96839;-77
2021/04/13 05:28:14;;;;;;;;;;;;;;;7.98;49.23;102465.69;4991179;28;98810;-80
2021/04/13 05:30:40;;;;;;;;;;;;;;;8.20;48.53;102461.34;4996216;28;101248;-78
2021/04/13 05:33:06;;;;;;;;;;;;;;;8.31;47.96;102460.50;4994142;28;97402;-79
2021/04/13 05:35:32;;;;;;;;;;;;;;;8.04;48.60;102459.56;4993773;28;97031;-79
2021/04/13 05:38:00;;;;;;;;;;;;;;;8.29;48.19;102467.50;4992384;28;100303;-79
2021/04/13 05:40:29;;;;;;;;;;;;;;;8.47;47.76;102465.81;4995696;28;99348;-79
2021/04/13 05:42:55;;;;;;;;;;;;;;;8.26;48.01;102466.63;4988926;28;97215;-79
2021/04/13 05:45:21;;;;;;;;;;;;;;;8.71;47.24;102465.78;4993136;28;98494;-80
2021/04/13 05:47:47;;;;;;;;;;;;;;;8.34;47.91;102471.03;4992700;28;99943;-78
2021/04/13 05:50:17;;;;;;;;;;;;;;;8.42;47.67;102467.53;4994509;28;98066;-79
2021/04/13 05:52:43;;;;;;;;;;;;;;;8.74;47.02;102473.69;4989080;28;96992;-77
2021/04/13 05:55:11;;;;;;;;;;;;;;;8.76;47.05;102466.66;4990065;28;96944;-79
2021/04/13 05:57:36;;;;;;;;;;;;;;;9.36;45.52;102462.16;4982290;28;99221;-78
2021/04/13 06:00:04;;;;;;;;;;;;;;;9.33;45.80;102463.00;4994357;28;99314;-79
2021/04/13 06:02:30;;;;;;;;;;;;;;;8.82;46.60;102471.91;4993651;28;97319;-79
2021/04/13 06:04:56;;;;;;;;;;;;;;;9.30;45.65;102478.00;4990816;28;97630;-77
2021/04/13 06:07:22;;;;;;;;;;;;;;;9.06;46.35;102466.59;4995756;28;99034;-76
2021/04/13 06:09:48;;;;;;;;;;;;;;;9.04;46.44;102472.78;5004452;28;99014;-77
2021/04/13 06:12:16;;;;;;;;;;;;;;;8.98;46.50;102475.44;5005737;28;97857;-78
2021/04/13 06:14:49;;;;;;;;;;;;;;;9.43;45.34;102479.72;5004464;28;97689;-78
2021/04/13 06:17:16;;;;;;;;;;;;;;;9.02;46.47;102480.69;5001934;28;97943;-76
2021/04/13 06:19:42;;;;;;;;;;;;;;;8.51;47.22;102488.63;5009131;28;99084;-78
2021/04/13 06:22:07;;;;;;;;;;;;;;;8.97;46.28;102481.56;5004208;28;96731;-77
2021/04/13 06:24:34;;;;;;;;;;;;;;;9.20;45.85;102482.41;5003077;28;96947;-77
2021/04/13 06:26:59;;;;;;;;;;;;;;;9.28;45.85;102485.91;5003183;28;98358;-77
2021/04/13 06:29:26;;;;;;;;;;;;;;;8.57;47.37;102486.00;4998775;28;98017;-76
2021/04/13 06:31:52;;;;;;;;;;;;;;;9.17;46.02;102496.50;4999461;28;97409;-76
2021/04/13 06:34:18;;;;;;;;;;;;;;;9.24;46.03;102492.09;4996001;28;97430;-78
2021/04/13 06:36:44;;;;;;;;;;;;;;;9.64;45.24;102494.59;5002188;28;99290;-78
2021/04/13 06:39:22;;;;;;;;;;;;;;;9.49;45.11;102495.53;5006773;28;98194;-80
2021/04/13 06:42:03;;;;;;;;;;;;;;;9.57;45.11;102493.75;5013561;28;97193;-79
2021/04/13 06:44:53;;;;;;;;;;;;;;;10.11;43.69;102494.38;5006814;28;96932;-79
2021/04/13 06:47:24;;;;;;;;;;;;;;;9.94;44.07;102494.44;5002400;28;102147;-77
2021/04/13 06:49:59;;;;;;;;;;;;;;;10.04;43.91;102495.28;5014149;28;99675;-77
2021/04/13 06:52:30;;;;;;;;;;;;;;;10.43;43.34;102504.75;5002331;28;96878;-77
2021/04/13 06:55:06;;;;;;;;;;;;;;;10.56;43.05;102512.59;5012360;28;97876;-77
2021/04/13 06:57:39;;;;;;;;;;;;;;;11.20;41.73;102506.72;5008307;28;100339;-78
2021/04/13 07:00:20;;;;;;;;;;;;;;;10.74;42.74;102501.88;4995443;28;98125;-76
2021/04/13 07:02:53;;;;;;;;;;;;;;;10.82;42.33;102506.22;5004186;28;96690;-80
2021/04/13 07:05:23;;;;;;;;;;;;;;;10.51;42.88;102500.25;5002477;28;97489;-78
2021/04/13 07:08:02;;;;;;;;;;;;;;;10.54;43.11;102506.44;5005834;28;99198;-80
2021/04/13 07:10:29;;;;;;;;;;;;;;;10.96;42.48;102496.38;5004747;28;97776;-79
2021/04/13 07:13:05;;;;;;;;;;;;;;;10.86;42.67;102505.28;5001381;28;96774;-78
2021/04/13 07:15:32;;;;;;;;;;;;;;;11.37;41.02;102496.81;5000413;28;96726;-80
2021/04/13 07:18:05;;;;;;;;;;;;;;;12.01;39.86;102498.72;5000541;28;99301;-79
2021/04/13 07:20:33;;;;;;;;;;;;;;;12.34;39.22;102505.28;4996206;28;98858;-79
2021/04/13 07:23:02;;;;;;;;;;;;;;;12.50;39.02;102495.34;5000456;28;96912;-78
2021/04/13 07:25:30;;;;;;;;;;;;;;;12.63;38.69;102488.94;4993898;28;98763;-77
2021/04/13 07:27:57;;;;;;;;;;;;;;;12.49;38.69;102493.59;5005921;28;98054;-78
2021/04/13 07:30:25;;;;;;;;;;;;;;;12.78;38.46;102497.53;5014722;28;98842;-77
2021/04/13 07:32:52;;;;;;;;;;;;;;;12.43;38.94;102493.69;5009784;28;96736;-79
2021/04/13 07:35:19;;;;;;;;;;;;;;;11.54;40.62;102501.94;5001403;28;96980;-79
2021/04/13 07:37:46;;;;;;;;;;;;;;;12.27;39.34;102491.25;4999607;28;99163;-80
2021/04/13 07:40:13;;;;;;;;;;;;;;;12.01;39.93;102493.44;5001101;28;99344;-79
2021/04/13 07:42:42;;;;;;;;;;;;;;;11.81;40.45;102490.16;5002366;28;97072;-79
2021/04/13 07:45:20;;;;;;;;;;;;;;;12.85;38.66;102495.66;5009902;28;96484;-78
2021/04/13 07:47:58;;;;;;;;;;;;;;;13.45;36.97;102488.38;5029593;28;99204;-78
2021/04/13 07:50:30;;;;;;;;;;;;;;;12.48;38.36;102491.81;5008326;28;97720;-78
2021/04/13 07:52:58;;;;;;;;;;;;;;;12.02;39.82;102488.97;5009093;28;96597;-80
2021/04/13 07:55:35;;;;;;;;;;;;;;;12.57;38.75;102495.22;5008258;28;96782;-81
2021/04/13 07:58:08;;;;;;;;;;;;;;;12.37;39.07;102495.53;5015788;28;98782;-79
2021/04/13 08:00:36;;;;;;;;;;;;;;;12.27;39.12;102495.72;5010654;28;100031;-79
2021/04/13 08:03:08;;;;;;;;;;;;;;;11.45;40.52;102502.91;5000285;28;97046;-79
2021/04/13 08:05:40;;;;;;;;;;;;;;;11.72;40.78;102491.13;5012269;28;96758;-80
2021/04/13 08:08:07;;;;;;;;;;;;;;;12.43;39.86;102493.69;5002607;28;99145;-79
2021/04/13 08:10:35;;;;;;;;;;;;;;;13.26;37.83;102499.38;5002090;28;99272;-78
2021/04/13 08:13:02;;;;;;;;;;;;;;;12.68;38.73;102500.34;5000306;28;97572;-79
2021/04/13 08:15:45;;;;;;;;;;;;;;;13.11;37.91;102492.53;5001296;28;96807;-79
2021/04/13 08:18:15;;;;;;;;;;;;;;;12.95;37.45;102501.66;5000381;28;101048;-79
2021/04/13 08:20:43;;;;;;;;;;;;;;;12.36;38.21;102498.19;4994948;28;98871;-78
2021/04/13 08:23:14;;;;;;;;;;;;;;;12.43;38.34;102502.50;5007056;28;98760;-78
2021/04/13 08:25:41;;;;;;;;;;;;;;;12.52;37.96;102493.53;4999489;28;96749;-81
2021/04/13 08:28:22;;;;;;;;;;;;;;;12.39;37.94;102495.53;4994312;28;100696;-80
2021/04/13 08:32:49;;;;;;;;;;;;;;;13.08;37.36;102488.13;4996169;28;97151;-79
2021/04/13 08:33:48;;;;;;;;;;;;;;;12.72;38.03;102489.69;4991413;28;100118;-79
2021/04/13 08:36:21;;;;;;;;;;;;;;;13.26;36.85;102497.56;4996144;28;96849;-79
2021/04/13 08:38:54;;;;;;;;;;;;;;;12.41;38.70;102493.69;4993785;28;98273;-79
2021/04/13 08:41:26;;;;;;;;;;;;;;;11.03;41.36;102503.34;5002231;28;99184;-78
2021/04/13 08:43:58;;;;;;;;;;;;;;;12.72;38.41;102505.59;4996698;28;98531;-79
2021/04/13 08:46:35;;;;;;;;;;;;;;;12.89;37.81;102513.25;5001046;28;97846;-80
2021/04/13 08:49:04;;;;;;;;;;;;;;;12.72;38.00;102507.38;4998568;28;99352;-80
2021/04/13 08:51:37;;;;;;;;;;;;;;;12.97;37.73;102511.34;4988747;28;97247;-79
2021/04/13 08:54:04;;;;;;;;;;;;;;;13.48;36.06;102509.53;4988991;28;96936;-78
2021/04/13 08:56:31;;;;;;;;;;;;;;;12.68;37.58;102503.00;4998106;28;96806;-79
2021/04/13 08:58:59;;;;;;;;;;;;;;;12.60;37.60;102513.72;4989347;28;116677;-78
2021/04/13 09:01:27;;;;;;;;;;;;;;;12.25;38.26;102501.03;4991557;28;98983;-80
2021/04/13 09:03:53;;;;;;;;;;;;;;;12.29;38.71;102496.53;4994404;28;96855;-78
2021/04/13 09:06:23;;;;;;;;;;;;;;;12.49;38.42;102506.84;4994321;28;96811;-78
2021/04/13 09:08:53;;;;;;;;;;;;;;;12.43;38.72;102501.63;4999442;28;99788;-80
2021/04/13 09:11:24;;;;;;;;;;;;;;;12.81;37.98;102506.31;5001476;28;97708;-81
2021/04/13 09:14:00;;;;;;;;;;;;;;;13.45;36.41;102506.06;5002286;28;96824;-80
2021/04/13 09:16:27;;;;;;;;;;;;;;;13.10;36.57;102502.25;4990282;28;96873;-80
2021/04/13 09:18:56;;;;;;;;;;;;;;;12.19;37.20;102498.47;4992515;28;100254;-80
2021/04/13 09:21:30;;;;;;;;;;;;;;;13.19;35.69;102492.41;4993270;28;97951;-77
2021/04/13 09:23:59;;;;;;;;;;;;;;;12.62;36.76;102497.78;4994345;28;96849;-79
2021/04/13 09:26:30;;;;;;;;;;;;;;;12.84;36.51;102493.00;4997527;28;97162;-79
2021/04/13 09:28:58;;;;;;;;;;;;;;;12.59;37.00;102490.78;4995731;28;97943;-79
2021/04/13 09:31:28;;;;;;;;;;;;;;;12.82;36.67;102495.69;4986685;28;99593;-79
2021/04/13 09:34:10;;;;;;;;;;;;;;;13.18;35.93;102499.50;4990643;28;96835;-78
2021/04/13 09:36:51;;;;;;;;;;;;;;;13.20;35.25;102492.38;4994035;28;96905;-80
2021/04/13 09:39:47;;;;;;;;;;;;;;;13.23;35.08;102494.09;4986489;28;99085;-79
2021/04/13 09:42:32;;;;;;;;;;;;;;;12.65;35.94;102495.09;4952260;28;98894;-79
2021/04/13 09:45:16;;;;;;;;;;;;;;;13.10;35.56;102481.03;4982764;28;96813;-79
2021/04/13 09:48:15;;;;;;;;;;;;;;;12.82;35.73;102487.72;4991247;28;97106;-81
2021/04/13 09:50:44;;;;;;;;;;;;;;;13.51;35.12;102490.03;4950002;28;99351;-81
2021/04/13 09:53:32;;;;;;;;;;;;;;;13.74;34.26;102487.75;4955106;28;101752;-80
2021/04/13 09:56:02;;;;;;;;;;;;;;;13.66;34.12;102479.06;4980694;28;98001;-81
2021/04/13 09:58:53;;;;;;;;;;;;;;;12.78;35.62;102478.09;4989690;28;97893;-81
2021/04/13 10:01:26;;;;;;;;;;;;;;;13.88;33.92;102479.47;4990478;28;101894;-80
2021/04/13 10:03:56;;;;;;;;;;;;;;;14.42;32.91;102480.06;4993648;28;98034;-81
2021/04/13 10:06:27;;;;;;;;;;;;;;;14.02;33.00;102473.88;4994948;28;97112;-80
2021/04/13 10:08:55;;;;;;;;;;;;;;;13.86;33.32;102473.31;4996731;28;96881;-81
2021/04/13 10:11:30;;;;;;;;;;;;;;;14.17;32.98;102476.19;4985451;28;100687;-80
2021/04/13 10:14:12;;;;;;;;;;;;;;;13.47;34.05;102467.06;4991522;28;99393;-80
2021/04/13 10:16:43;;;;;;;;;;;;;;;13.72;33.45;102476.28;4988159;28;96951;-79
2021/04/13 10:19:26;;;;;;;;;;;;;;;13.48;33.95;102468.81;4997572;28;96969;-80
2021/04/13 10:22:09;;;;;;;;;;;;;;;14.27;32.57;102469.72;4992694;28;99611;-78
2021/04/13 10:24:50;;;;;;;;;;;;;;;14.42;32.71;102480.06;4980927;28;99173;-79
2021/04/13 10:27:26;;;;;;;;;;;;;;;13.87;33.41;102470.63;4991152;28;97520;-80
2021/04/13 10:30:00;;;;;;;;;;;;;;;12.96;34.69;102469.78;5001961;28;97301;-78
2021/04/13 10:32:41;;;;;;;;;;;;;;;13.22;34.19;102476.41;4992666;28;98932;-81
2021/04/13 10:35:14;;;;;;;;;;;;;;;13.21;34.61;102479.97;4989690;28;98769;-79
2021/04/13 10:38:00;;;;;;;;;;;;;;;12.89;35.29;102476.09;4990260;28;97291;-79
2021/04/13 10:40:36;;;;;;;;;;;;;;;13.07;34.80;102481.06;4992267;28;97047;-79
2021/04/13 10:43:17;;;;;;;;;;;;;;;13.05;34.97;102479.38;4995240;28;99160;-78
2021/04/13 10:45:54;;;;;;;;;;;;;;;13.38;34.76;102475.22;4998849;28;98903;-80
2021/04/13 10:48:42;;;;;;;;;;;;;;;13.25;35.17;102466.63;5000168;28;97368;-80
2021/04/13 10:51:22;;;;;;;;;;;;;;;12.65;35.06;102481.84;4999831;28;96928;-79
2021/04/13 10:54:14;;;;;;;;;;;;;;;13.01;34.69;102480.31;4997397;28;100052;-80
2021/04/13 10:56:48;;;;;;;;;;;;;;;12.44;35.57;102479.53;4995849;28;102572;-79
2021/04/13 10:59:29;;;;;;;;;;;;;;;12.98;34.44;102481.25;4992698;28;96780;-78
2021/04/13 11:02:06;;;;;;;;;;;;;;;13.23;33.83;102471.09;4996106;28;97436;-79
2021/04/13 11:04:54;;;;;;;;;;;;;;;14.56;31.73;102477.94;5008683;28;99236;-78
2021/04/13 11:07:39;;;;;;;;;;;;;;;13.93;32.33;102473.16;4998184;28;99281;-77
2021/04/13 11:10:22;;;;;;;;;;;;;;;13.83;32.98;102466.31;5005619;28;97498;-78
2021/04/13 11:13:03;;;;;;;;;;;;;;;13.29;33.66;102468.31;5001099;28;96852;-77
2021/04/13 11:15:41;;;;;;;;;;;;;;;12.62;34.70;102465.97;4999787;28;98459;-77
2021/04/13 11:18:15;;;;;;;;;;;;;;;12.62;34.66;102473.91;5001994;28;99690;-80
2021/04/13 11:21:08;;;;;;;;;;;;;;;13.43;33.26;102468.03;4996125;28;97804;-79
2021/04/13 11:23:53;;;;;;;;;;;;;;;13.34;33.34;102462.91;4993122;28;96832;-79
2021/04/13 11:26:38;;;;;;;;;;;;;;;13.13;33.43;102461.53;4996092;28;97927;-79
2021/04/13 11:29:23;;;;;;;;;;;;;;;12.26;34.83;102470.09;4994128;28;99152;-79
2021/04/13 11:32:05;;;;;;;;;;;;;;;13.54;33.42;102474.88;4995148;28;96732;-78
2021/04/13 11:34:41;;;;;;;;;;;;;;;13.88;33.15;102471.50;4992779;28;96836;-79
2021/04/13 11:37:13;;;;;;;;;;;;;;;13.63;33.36;102464.97;4995391;28;101340;-79
2021/04/13 11:39:41;;;;;;;;;;;;;;;13.48;33.10;102466.16;5001640;28;99387;-79
2021/04/13 11:42:17;;;;;;;;;;;;;;;13.28;33.13;102473.66;5004173;28;97070;-80
2021/04/13 11:44:48;;;;;;;;;;;;;;;13.76;32.25;102463.81;5004447;28;96901;-79
2021/04/13 11:47:19;;;;;;;;;;;;;;;13.53;31.99;102462.50;5005174;28;100610;-78
2021/04/13 11:49:53;;;;;;;;;;;;;;;13.72;31.51;102455.00;4997351;28;98786;-77
2021/04/13 11:52:24;;;;;;;;;;;;;;;14.05;30.59;102452.53;4996076;28;97492;-78
2021/04/13 11:54:52;;;;;;;;;;;;;;;14.38;30.54;102458.84;5003639;28;96986;-79
2021/04/13 11:57:20;;;;;;;;;;;;;;;14.73;30.30;102448.22;5006053;28;97920;-78
2021/04/13 12:00:04;;;;;;;;;;;;;;;14.88;30.07;102457.59;5000916;28;97563;-79
2021/04/13 12:02:30;;;;;;;;;;;;;;;15.15;29.26;102446.22;5005445;28;97016;-79
2021/04/13 12:04:57;;;;;;;;;;;;;;;14.51;29.64;102461.19;5004579;28;97048;-79
2021/04/13 12:07:42;;;;;;;;;;;;;;;14.19;30.32;102450.41;5002983;28;99084;-79
2021/04/13 12:10:12;;;;;;;;;;;;;;;14.56;29.26;102448.66;5004084;28;99150;-78
2021/04/13 12:12:46;;;;;;;;;;;;;;;14.36;29.25;102449.13;4998531;28;97662;-78
2021/04/13 12:15:31;;;;;;;;;;;;;;;13.81;30.08;102438.88;5003989;28;96989;-80
2021/04/13 12:17:58;;;;;;;;;;;;;;;13.76;29.93;102438.13;5012373;28;99231;-79
2021/04/13 12:20:45;;;;;;;;;;;;;;;14.34;28.99;102439.44;5006019;28;97861;-79
2021/04/13 12:23:30;;;;;;;;;;;;;;;13.20;31.38;102427.78;5004744;28;96821;-78
2021/04/13 12:26:08;;;;;;;;;;;;;;;12.66;31.49;102438.50;4997303;28;97710;-79
2021/04/13 12:28:49;;;;;;;;;;;;;;;12.06;32.95;102438.59;4998459;28;98934;-79
2021/04/13 12:31:23;;;;;;;;;;;;;;;12.02;33.18;102431.56;4998837;28;100794;-79
2021/04/13 12:33:54;;;;;;;;;;;;;;;11.83;34.00;102441.56;5006738;28;96843;-78
2021/04/13 12:36:38;;;;;;;;;;;;;;;11.16;35.42;102436.19;4995617;28;96892;-78
2021/04/13 12:39:05;;;;;;;;;;;;;;;11.53;35.19;102432.22;4999549;28;101623;-79
2021/04/13 12:41:34;;;;;;;;;;;;;;;12.65;33.41;102431.44;4994671;28;99321;-79
2021/04/13 12:44:02;;;;;;;;;;;;;;;13.68;31.56;102426.78;4996519;28;97291;-79
2021/04/13 12:46:39;;;;;;;;;;;;;;;13.71;31.45;102426.72;4996162;28;96919;-79
2021/04/13 12:49:18;;;;;;;;;;;;;;;13.68;32.11;102426.78;4992714;28;101855;-80
2021/04/13 12:51:51;;;;;;;;;;;;;;;14.45;31.41;102423.22;4998593;28;98924;-79
2021/04/13 12:54:18;;;;;;;;;;;;;;;14.50;30.18;102422.22;4994223;28;96807;-79
2021/04/13 12:56:53;;;;;;;;;;;;;;;14.56;30.79;102418.53;5003145;28;97305;-78
2021/04/13 12:59:21;;;;;;;;;;;;;;;13.28;31.28;102416.13;4991183;28;102613;-80
2021/04/13 13:01:47;;;;;;;;;;;;;;;14.96;29.11;102426.34;5002687;28;97456;-79